createdAt,value
2023-05-17T00:00:50.689Z,1.90
2023-05-17T00:04:53.553Z,2.20
2023-05-17T00:08:55.488Z,1.90
2023-05-17T00:12:57.304Z,2.38
2023-05-17T00:16:59.025Z,2.63
2023-05-17T00:21:00.986Z,2.30
2023-05-17T00:25:03.119Z,2.72
2023-05-17T00:29:05.065Z,2.60
2023-05-17T00:33:06.880Z,2.40
2023-05-17T00:37:08.632Z,2.95
2023-05-17T00:41:10.457Z,2.22
2023-05-17T00:45:12.284Z,3.15
2023-05-17T00:49:14.000Z,2.88
2023-05-17T00:53:16.298Z,2.72
2023-05-17T00:57:18.363Z,2.57
2023-05-17T01:01:20.272Z,3.38
2023-05-17T01:05:22.106Z,3.28
2023-05-17T01:09:24.006Z,3.78
2023-05-17T01:13:40.750Z,3.15
2023-05-17T01:18:09.624Z,3.38
2023-05-17T01:22:25.407Z,3.25
2023-05-17T01:26:44.339Z,3.80
2023-05-17T01:30:47.428Z,3.70
2023-05-17T01:38:51.007Z,3.95
2023-05-17T01:43:10.738Z,4.50
2023-05-17T01:47:38.157Z,4.43
2023-05-17T01:51:57.457Z,4.70
2023-05-17T01:56:11.100Z,5.05
2023-05-17T02:00:14.582Z,4.40
2023-05-17T02:04:16.444Z,4.70
2023-05-17T02:08:18.335Z,4.05
2023-05-17T02:12:20.096Z,4.50
2023-05-17T02:16:22.207Z,4.90
2023-05-17T02:20:24.094Z,4.78
2023-05-17T02:24:26.267Z,4.25
2023-05-17T02:28:28.003Z,4.28
2023-05-17T02:32:29.974Z,3.85
2023-05-17T02:36:32.470Z,4.15
2023-05-17T02:40:34.365Z,3.80
2023-05-17T02:44:36.119Z,4.55
2023-05-17T02:48:37.891Z,4.43
2023-05-17T02:52:39.655Z,5.03
2023-05-17T02:56:41.465Z,5.85
2023-05-17T03:00:46.431Z,4.30
2023-05-17T03:04:48.719Z,4.30
2023-05-17T03:08:50.708Z,5.43
2023-05-17T03:12:52.491Z,5.43
2023-05-17T03:16:54.218Z,5.97
2023-05-17T03:20:56.222Z,5.18
2023-05-17T03:24:57.957Z,5.15
2023-05-17T03:28:59.922Z,5.70
2023-05-17T03:33:01.789Z,5.90
2023-05-17T03:37:03.886Z,5.40
2023-05-17T03:41:05.952Z,5.75
2023-05-17T03:45:08.144Z,6.20
2023-05-17T03:49:09.985Z,6.03
2023-05-17T03:53:12.453Z,5.65
2023-05-17T03:57:14.237Z,7.37
2023-05-17T04:01:16.058Z,6.80
2023-05-17T04:05:18.916Z,7.28
2023-05-17T04:09:20.755Z,7.88
2023-05-17T04:13:22.545Z,8.15
2023-05-17T04:17:24.490Z,8.05
2023-05-17T04:21:26.648Z,9.80
2023-05-17T04:25:28.978Z,9.15
2023-05-17T04:29:31.097Z,8.25
2023-05-17T04:33:32.953Z,8.95
2023-05-17T04:37:34.883Z,9.40
2023-05-17T04:41:36.683Z,10.20
2023-05-17T04:45:39.229Z,8.73
2023-05-17T04:49:41.707Z,10.23
2023-05-17T04:53:43.623Z,9.48
2023-05-17T04:57:45.512Z,9.15
2023-05-17T05:01:47.206Z,10.50
2023-05-17T05:05:49.107Z,11.55
2023-05-17T05:09:50.983Z,9.55
2023-05-17T05:13:52.718Z,10.52
2023-05-17T05:17:54.491Z,9.75
2023-05-17T05:21:56.283Z,10.10
2023-05-17T05:25:58.009Z,11.18
2023-05-17T05:29:59.751Z,9.50
2023-05-17T05:34:01.504Z,11.50
2023-05-17T05:38:03.414Z,10.40
2023-05-17T05:42:05.526Z,11.30
2023-05-17T05:46:08.183Z,11.30
2023-05-17T05:50:10.590Z,11.70
2023-05-17T05:54:13.936Z,11.80
2023-05-17T05:58:15.876Z,10.52
2023-05-17T06:02:17.821Z,10.85
2023-05-17T06:06:19.740Z,11.25
2023-05-17T06:10:21.527Z,11.73
2023-05-17T06:14:23.223Z,12.43
2023-05-17T06:18:25.097Z,13.15
2023-05-17T06:22:26.798Z,14.07
2023-05-17T06:26:28.596Z,13.68
2023-05-17T06:30:31.424Z,13.15
2023-05-17T06:38:34.946Z,13.63
2023-05-17T06:42:37.028Z,14.02
2023-05-17T06:46:38.703Z,11.23
2023-05-17T06:50:40.398Z,11.60
2023-05-17T06:54:42.348Z,12.00
2023-05-17T06:58:44.029Z,13.90
2023-05-17T07:02:45.894Z,12.02
2023-05-17T07:06:47.629Z,12.45
2023-05-17T07:10:52.208Z,12.20
2023-05-17T07:14:53.882Z,12.40
2023-05-17T07:18:55.799Z,12.30
2023-05-17T07:22:57.478Z,9.98
2023-05-17T07:26:59.169Z,11.07
2023-05-17T07:31:01.557Z,10.65
2023-05-17T07:35:03.504Z,11.10
2023-05-17T07:39:05.284Z,9.90
2023-05-17T07:43:06.939Z,9.70
2023-05-17T07:47:08.693Z,8.63
2023-05-17T07:51:10.362Z,8.20
2023-05-17T07:55:12.446Z,8.73
2023-05-17T07:59:16.276Z,9.18
2023-05-17T08:03:17.997Z,8.65
2023-05-17T08:07:19.686Z,9.10
2023-05-17T08:11:21.537Z,7.32
2023-05-17T08:15:25.984Z,7.55
2023-05-17T08:19:28.365Z,6.72
2023-05-17T08:23:30.295Z,7.18
2023-05-17T08:27:32.254Z,9.02
2023-05-17T08:31:34.062Z,7.45
2023-05-17T08:35:38.427Z,7.80
2023-05-17T08:39:40.239Z,7.68
2023-05-17T08:43:44.283Z,7.05
2023-05-17T08:47:46.835Z,6.38
2023-05-17T08:51:52.718Z,5.72
2023-05-17T08:56:00.432Z,6.90
2023-05-17T09:00:06.775Z,5.78
2023-05-17T09:04:12.608Z,6.03
2023-05-17T09:08:14.416Z,4.60
2023-05-17T09:12:16.168Z,5.07
2023-05-17T09:16:20.201Z,4.95
2023-05-17T09:20:34.856Z,5.20
2023-05-17T09:24:36.633Z,5.07
2023-05-17T09:28:42.257Z,3.67
2023-05-17T09:32:50.287Z,3.08
2023-05-17T09:36:52.190Z,3.45
2023-05-17T09:40:54.394Z,3.13
2023-05-17T09:44:57.704Z,3.10
2023-05-17T09:49:03.074Z,2.97
2023-05-17T09:53:05.106Z,2.92
2023-05-17T09:57:09.561Z,3.10
2023-05-17T10:01:12.101Z,2.30
2023-05-17T10:05:14.796Z,3.30
2023-05-17T10:09:18.501Z,2.72
2023-05-17T10:13:27.280Z,2.10
2023-05-17T10:17:30.006Z,2.80
2023-05-17T10:21:32.806Z,3.10
2023-05-17T10:25:35.628Z,3.38
2023-05-17T10:29:39.445Z,3.47
2023-05-17T10:33:43.071Z,3.58
2023-05-17T10:37:45.042Z,3.85
2023-05-17T10:41:52.739Z,2.40
2023-05-17T10:45:55.101Z,2.67
2023-05-17T10:49:57.077Z,3.53
2023-05-17T10:54:09.739Z,4.43
2023-05-17T10:58:16.051Z,3.47
2023-05-17T11:02:24.348Z,3.88
2023-05-17T11:06:26.214Z,3.38
2023-05-17T11:10:28.517Z,3.40
2023-05-17T11:14:45.597Z,3.63
2023-05-17T11:18:51.482Z,2.85
2023-05-17T11:23:06.827Z,2.83
2023-05-17T11:27:08.815Z,3.20
2023-05-17T11:31:10.671Z,3.10
2023-05-17T11:35:12.684Z,4.35
2023-05-17T11:39:15.871Z,3.67
2023-05-17T11:43:19.010Z,2.78
2023-05-17T11:47:21.995Z,3.70
2023-05-17T11:59:29.374Z,2.80
2023-05-17T12:03:32.823Z,2.75
2023-05-17T12:07:34.834Z,2.97
2023-05-17T12:11:39.501Z,2.70
2023-05-17T12:15:45.808Z,3.10
2023-05-17T12:19:47.884Z,3.20
2023-05-17T12:23:52.061Z,2.33
2023-05-17T12:28:15.118Z,2.15
2023-05-17T12:32:16.858Z,2.42
2023-05-17T12:36:19.272Z,2.63
2023-05-17T12:40:21.890Z,3.17
2023-05-17T12:44:25.204Z,2.60
2023-05-17T12:48:27.385Z,2.50
2023-05-17T12:52:35.125Z,3.28
2023-05-17T12:56:36.844Z,3.28
2023-05-17T13:00:38.553Z,2.35
2023-05-17T13:04:41.114Z,2.25
2023-05-17T13:08:44.208Z,2.80
2023-05-17T13:12:55.624Z,2.22
2023-05-17T13:16:57.392Z,2.17
2023-05-17T13:20:59.147Z,2.78
2023-05-17T13:25:00.974Z,2.30
2023-05-17T13:29:02.699Z,2.40
2023-05-17T13:33:04.618Z,2.95
2023-05-17T13:37:10.285Z,2.13
2023-05-17T13:41:13.550Z,2.20
2023-05-17T13:45:15.268Z,2.42
2023-05-17T13:49:17.427Z,1.92
2023-05-17T13:53:19.311Z,2.72
2023-05-17T13:57:21.331Z,2.85
2023-05-17T14:01:23.012Z,2.07
2023-05-17T14:05:25.005Z,2.10
2023-05-17T14:09:26.738Z,2.77
2023-05-17T14:13:28.556Z,2.72
2023-05-17T14:17:30.448Z,2.80
2023-05-17T14:21:33.084Z,2.55
2023-05-17T14:25:34.849Z,2.42
2023-05-17T14:29:36.519Z,2.35
2023-05-17T14:33:38.272Z,2.17
2023-05-17T14:37:40.044Z,2.15
2023-05-17T14:41:43.395Z,2.55
2023-05-17T14:45:46.478Z,1.65
2023-05-17T14:49:48.200Z,2.38
2023-05-17T14:53:49.866Z,2.38
2023-05-17T14:57:53.150Z,2.15
2023-05-17T15:01:55.079Z,2.28
2023-05-17T15:05:58.482Z,2.30
2023-05-17T15:10:00.406Z,2.25
2023-05-17T15:14:05.989Z,2.53
2023-05-17T15:18:07.749Z,2.65
2023-05-17T15:22:09.508Z,2.78
2023-05-17T15:26:11.495Z,2.10
2023-05-17T15:30:13.789Z,2.60
2023-05-17T15:34:15.563Z,2.95
2023-05-17T15:38:17.249Z,2.65
2023-05-17T15:42:18.916Z,2.67
2023-05-17T15:46:21.880Z,2.28
2023-05-17T15:50:23.558Z,2.70
2023-05-17T15:54:25.401Z,2.35
2023-05-17T15:58:28.107Z,2.65
2023-05-17T16:02:30.241Z,2.70
2023-05-17T16:06:35.844Z,2.37
2023-05-17T16:10:37.966Z,2.20
2023-05-17T16:14:40.890Z,3.13
2023-05-17T16:18:42.814Z,2.22
2023-05-17T16:22:45.857Z,2.20
2023-05-17T16:26:47.704Z,2.58
2023-05-17T16:30:50.877Z,2.50
2023-05-17T16:34:52.594Z,3.33
2023-05-17T16:38:54.304Z,2.20
2023-05-17T16:42:56.308Z,2.88
2023-05-17T16:46:58.631Z,2.77
2023-05-17T16:51:00.356Z,2.28
2023-05-17T16:55:03.213Z,2.33
2023-05-17T16:59:05.961Z,2.30
2023-05-17T17:03:09.579Z,2.78
2023-05-17T17:07:11.604Z,2.92
2023-05-17T17:11:13.250Z,2.47
2023-05-17T17:15:15.556Z,2.70
2023-05-17T17:19:17.261Z,2.78
2023-05-17T17:23:18.945Z,3.00
2023-05-17T17:27:21.214Z,2.33
2023-05-17T17:31:22.852Z,2.47
2023-05-17T17:35:24.598Z,2.60
2023-05-17T17:39:26.247Z,2.85
2023-05-17T17:43:27.917Z,2.70
2023-05-17T17:47:29.618Z,2.65
2023-05-17T17:51:31.472Z,3.20
2023-05-17T17:55:33.238Z,2.83
2023-05-17T17:59:37.093Z,3.03
2023-05-17T18:03:38.770Z,3.13
2023-05-17T18:07:40.616Z,3.40
2023-05-17T18:11:42.329Z,3.20
2023-05-17T18:15:45.103Z,3.42
2023-05-17T18:19:48.596Z,3.08
2023-05-17T18:23:50.658Z,3.08
2023-05-17T18:27:52.344Z,3.67
2023-05-17T18:31:54.126Z,3.50
2023-05-17T18:35:56.012Z,3.55
2023-05-17T18:40:00.500Z,3.55
2023-05-17T18:44:02.839Z,3.65
2023-05-17T18:48:04.912Z,4.07
2023-05-17T18:52:07.063Z,4.28
2023-05-17T18:56:08.720Z,5.57
2023-05-17T19:00:11.130Z,4.55
2023-05-17T19:04:14.273Z,4.28
2023-05-17T19:08:16.036Z,4.05
2023-05-17T19:12:17.693Z,4.35
2023-05-17T19:16:19.396Z,4.10
2023-05-17T19:20:21.251Z,3.50
2023-05-17T19:24:22.888Z,3.85
2023-05-17T19:28:24.818Z,3.58
2023-05-17T19:32:26.962Z,4.00
2023-05-17T19:36:29.016Z,3.83
2023-05-17T19:40:31.253Z,3.33
2023-05-17T19:44:33.186Z,4.18
2023-05-17T19:48:34.982Z,4.07
2023-05-17T19:52:36.840Z,3.15
2023-05-17T19:56:38.753Z,3.95
2023-05-17T20:00:40.544Z,4.03
2023-05-17T20:04:42.188Z,3.60
2023-05-17T20:08:45.638Z,4.13
2023-05-17T20:12:47.313Z,2.70
2023-05-17T20:16:49.066Z,4.18
2023-05-17T20:20:53.985Z,3.08
2023-05-17T20:24:57.816Z,2.92
2023-05-17T20:28:59.914Z,3.83
2023-05-17T20:33:01.616Z,3.58
2023-05-17T20:37:03.281Z,3.08
2023-05-17T20:41:07.322Z,3.63
2023-05-17T20:45:10.656Z,3.28
2023-05-17T20:49:13.354Z,3.20
2023-05-17T20:53:15.041Z,3.63
2023-05-17T20:57:16.736Z,3.85
2023-05-17T21:01:18.695Z,3.85
2023-05-17T21:05:21.670Z,3.55
2023-05-17T21:09:24.187Z,5.28
2023-05-17T21:13:26.703Z,11.60
2023-05-17T21:17:28.475Z,6.68
2023-05-17T21:21:30.755Z,5.13
2023-05-17T21:25:33.980Z,3.37
2023-05-17T21:29:35.924Z,4.28
2023-05-17T21:33:37.571Z,3.85
2023-05-17T21:37:40.115Z,3.78
2023-05-17T21:41:41.967Z,4.15
2023-05-17T21:45:44.470Z,4.00
2023-05-17T21:49:46.159Z,3.38
2023-05-17T21:53:50.164Z,3.20
2023-05-17T21:57:51.892Z,3.80
2023-05-17T22:01:55.439Z,5.18
2023-05-17T22:05:57.286Z,5.20
2023-05-17T22:10:00.235Z,5.22
2023-05-17T22:18:04.913Z,4.30
2023-05-17T22:22:07.794Z,4.03
2023-05-17T22:26:09.594Z,3.97
2023-05-17T22:30:11.778Z,4.25
2023-05-17T22:34:13.417Z,4.50
2023-05-17T22:38:15.845Z,5.40
2023-05-17T22:42:17.572Z,4.05
2023-05-17T22:46:19.938Z,4.03
2023-05-17T22:50:24.424Z,4.37
2023-05-17T22:54:26.821Z,3.38
2023-05-17T22:58:28.595Z,3.55
2023-05-17T23:02:31.762Z,3.85
2023-05-17T23:06:34.281Z,3.47
2023-05-17T23:10:37.800Z,4.55
2023-05-17T23:14:39.773Z,3.58
2023-05-17T23:18:41.655Z,4.25
2023-05-17T23:22:43.920Z,4.45
2023-05-17T23:26:47.320Z,4.37
2023-05-17T23:30:49.764Z,4.43
2023-05-17T23:34:58.265Z,5.28
2023-05-17T23:38:59.918Z,3.67
2023-05-17T23:43:01.697Z,3.85
2023-05-17T23:47:04.782Z,3.58
2023-05-17T23:51:06.666Z,4.57
2023-05-17T23:55:08.958Z,4.45
2023-05-17T23:59:12.008Z,4.33
